createdAt,value
2023-05-10T00:00:43.317Z,10.02
2023-05-10T00:03:09.854Z,10.30
2023-05-10T00:05:36.514Z,10.70
2023-05-10T00:08:02.999Z,10.20
2023-05-10T00:10:29.412Z,9.85
2023-05-10T00:12:55.985Z,10.20
2023-05-10T00:15:22.740Z,11.57
2023-05-10T00:17:49.454Z,10.85
2023-05-10T00:20:16.460Z,12.20
2023-05-10T00:22:43.150Z,11.82
2023-05-10T00:25:11.224Z,13.45
2023-05-10T00:27:37.866Z,12.07
2023-05-10T00:30:04.800Z,12.77
2023-05-10T00:32:31.561Z,13.17
2023-05-10T00:34:58.156Z,13.55
2023-05-10T00:37:24.721Z,12.77
2023-05-10T00:39:51.371Z,14.10
2023-05-10T00:42:17.886Z,14.68
2023-05-10T00:44:44.573Z,14.13
2023-05-10T00:47:11.822Z,16.58
2023-05-10T00:49:38.565Z,17.02
2023-05-10T00:52:05.455Z,17.70
2023-05-10T00:54:31.985Z,17.05
2023-05-10T00:56:58.506Z,17.60
2023-05-10T00:59:25.398Z,18.60
2023-05-10T01:01:52.956Z,18.55
2023-05-10T01:04:21.069Z,19.02
2023-05-10T01:06:47.559Z,19.85
2023-05-10T01:09:14.089Z,17.83
2023-05-10T01:11:41.118Z,17.38
2023-05-10T01:14:08.096Z,17.98
2023-05-10T01:16:43.253Z,18.27
2023-05-10T01:19:20.132Z,19.20
2023-05-10T01:21:57.474Z,18.57
2023-05-10T01:24:40.966Z,18.50
2023-05-10T01:27:21.148Z,17.80
2023-05-10T01:30:15.589Z,17.98
2023-05-10T01:33:23.767Z,17.55
2023-05-10T01:35:56.118Z,17.40
2023-05-10T01:38:31.458Z,18.17
2023-05-10T01:41:09.702Z,18.85
2023-05-10T01:43:49.585Z,17.45
2023-05-10T01:46:21.576Z,17.65
2023-05-10T01:48:52.493Z,18.27
2023-05-10T01:51:23.962Z,18.08
2023-05-10T01:53:55.244Z,18.13
2023-05-10T01:56:27.268Z,18.73
2023-05-10T01:58:56.299Z,18.35
2023-05-10T02:01:23.559Z,19.13
2023-05-10T02:03:52.727Z,19.05
2023-05-10T02:06:21.906Z,18.45
2023-05-10T02:08:50.761Z,18.50
2023-05-10T02:11:19.536Z,19.55
2023-05-10T02:13:48.366Z,18.97
2023-05-10T02:16:17.324Z,20.10
2023-05-10T02:18:44.630Z,18.63
2023-05-10T02:21:11.814Z,19.10
2023-05-10T02:23:38.686Z,19.70
2023-05-10T02:26:06.886Z,18.63
2023-05-10T02:28:35.884Z,18.58
2023-05-10T02:31:03.214Z,20.10
2023-05-10T02:33:31.261Z,18.25
2023-05-10T02:35:58.099Z,19.55
2023-05-10T02:38:26.739Z,19.43
2023-05-10T02:40:54.928Z,18.38
2023-05-10T02:43:24.328Z,18.67
2023-05-10T02:45:53.365Z,18.70
2023-05-10T02:48:20.983Z,18.02
2023-05-10T02:50:52.268Z,19.27
2023-05-10T02:53:37.737Z,19.80
2023-05-10T02:56:20.035Z,19.48
2023-05-10T02:58:47.188Z,18.55
2023-05-10T03:01:13.667Z,18.65
2023-05-10T03:03:40.226Z,19.77
2023-05-10T03:06:07.776Z,20.58
2023-05-10T03:08:34.920Z,20.83
2023-05-10T03:11:25.085Z,20.90
2023-05-10T03:14:28.766Z,22.42
2023-05-10T03:17:08.229Z,20.80
2023-05-10T03:19:50.729Z,20.55
2023-05-10T03:22:31.539Z,21.63
2023-05-10T03:24:59.374Z,20.98
2023-05-10T03:27:27.883Z,20.35
2023-05-10T03:29:55.832Z,20.10
2023-05-10T03:32:23.004Z,20.27
2023-05-10T03:34:49.534Z,21.52
2023-05-10T03:37:15.975Z,21.38
2023-05-10T03:39:42.578Z,20.92
2023-05-10T03:42:09.200Z,20.37
2023-05-10T03:44:35.695Z,19.83
2023-05-10T03:47:02.182Z,20.67
2023-05-10T03:49:28.722Z,19.40
2023-05-10T03:51:55.139Z,20.23
2023-05-10T03:54:22.460Z,20.27
2023-05-10T03:56:49.029Z,19.73
2023-05-10T03:59:15.518Z,19.70
2023-05-10T04:01:42.298Z,19.00
2023-05-10T04:04:08.869Z,19.88
2023-05-10T04:06:36.029Z,19.73
2023-05-10T04:09:05.097Z,21.52
2023-05-10T04:11:31.735Z,20.95
2023-05-10T04:13:58.119Z,20.63
2023-05-10T04:16:24.626Z,21.17
2023-05-10T04:18:51.500Z,19.63
2023-05-10T04:21:17.986Z,19.42
2023-05-10T04:23:44.529Z,20.23
2023-05-10T04:26:11.203Z,20.13
2023-05-10T04:28:37.650Z,20.23
2023-05-10T04:31:08.273Z,19.10
2023-05-10T04:33:35.451Z,18.27
2023-05-10T04:36:02.593Z,20.38
2023-05-10T04:38:29.506Z,19.73
2023-05-10T04:41:05.306Z,19.02
2023-05-10T04:43:31.894Z,18.40
2023-05-10T04:45:58.526Z,19.58
2023-05-10T04:48:24.941Z,20.15
2023-05-10T04:50:51.403Z,20.33
2023-05-10T04:53:17.745Z,19.13
2023-05-10T04:55:44.136Z,19.60
2023-05-10T04:58:10.557Z,20.23
2023-05-10T05:00:37.315Z,20.20
2023-05-10T05:03:04.380Z,20.35
2023-05-10T05:05:30.963Z,20.77
2023-05-10T05:07:57.680Z,20.40
2023-05-10T05:10:24.128Z,20.27
2023-05-10T05:12:50.800Z,20.23
2023-05-10T05:15:17.868Z,21.02
2023-05-10T05:17:44.860Z,21.10
2023-05-10T05:20:11.880Z,21.33
2023-05-10T05:22:38.654Z,20.00
2023-05-10T05:25:06.447Z,21.13
2023-05-10T05:27:33.822Z,21.30
2023-05-10T05:30:00.215Z,20.92
2023-05-10T05:32:26.919Z,21.60
2023-05-10T05:34:53.380Z,22.58
2023-05-10T05:37:22.423Z,20.33
2023-05-10T05:39:49.132Z,21.63
2023-05-10T05:42:17.433Z,21.48
2023-05-10T05:44:44.416Z,19.77
2023-05-10T05:47:11.574Z,20.33
2023-05-10T05:49:38.090Z,19.30
2023-05-10T05:52:05.445Z,20.23
2023-05-10T05:54:32.768Z,19.85
2023-05-10T05:57:01.409Z,18.60
2023-05-10T05:59:28.279Z,19.45
2023-05-10T06:01:54.900Z,18.33
2023-05-10T06:04:21.624Z,20.10
2023-05-10T06:06:48.089Z,20.08
2023-05-10T06:09:14.642Z,19.57
2023-05-10T06:11:41.532Z,19.35
2023-05-10T06:14:08.825Z,18.25
2023-05-10T06:16:35.881Z,18.33
2023-05-10T06:19:03.349Z,18.48
2023-05-10T06:21:29.948Z,18.20
2023-05-10T06:23:56.347Z,18.15
2023-05-10T06:26:22.756Z,18.98
2023-05-10T06:28:49.351Z,18.30
2023-05-10T06:31:16.122Z,17.65
2023-05-10T06:33:42.663Z,18.33
2023-05-10T06:36:09.203Z,17.17
2023-05-10T06:38:35.653Z,16.60
2023-05-10T06:41:02.042Z,16.65
2023-05-10T06:43:29.798Z,15.38
2023-05-10T06:45:56.961Z,14.93
2023-05-10T06:48:23.564Z,14.75
2023-05-10T06:50:50.289Z,14.07
2023-05-10T06:53:16.724Z,13.82
2023-05-10T06:55:43.164Z,12.93
2023-05-10T06:58:09.562Z,11.40
2023-05-10T07:00:36.329Z,10.52
2023-05-10T07:03:03.024Z,10.13
2023-05-10T07:05:30.491Z,9.50
2023-05-10T07:07:56.942Z,9.50
2023-05-10T07:10:23.451Z,9.10
2023-05-10T07:12:50.064Z,8.77
2023-05-10T07:15:17.130Z,7.53
2023-05-10T07:17:45.916Z,8.20
2023-05-10T07:20:13.119Z,8.98
2023-05-10T07:22:39.643Z,8.20
2023-05-10T07:25:06.785Z,8.68
2023-05-10T07:27:33.557Z,8.27
2023-05-10T07:30:00.249Z,7.38
2023-05-10T07:32:26.838Z,7.75
2023-05-10T07:34:53.289Z,6.37
2023-05-10T07:37:19.763Z,7.38
2023-05-10T07:39:46.226Z,7.38
2023-05-10T07:42:12.655Z,7.50
2023-05-10T07:44:39.217Z,7.85
2023-05-10T07:47:05.595Z,7.73
2023-05-10T07:49:32.189Z,8.50
2023-05-10T07:51:58.669Z,8.45
2023-05-10T07:54:25.102Z,7.25
2023-05-10T07:56:52.053Z,7.82
2023-05-10T07:59:18.791Z,8.20
2023-05-10T08:01:46.024Z,7.53
2023-05-10T08:04:12.735Z,7.07
2023-05-10T08:06:40.052Z,6.45
2023-05-10T08:09:06.487Z,6.25
2023-05-10T08:11:34.865Z,6.70
2023-05-10T08:14:01.470Z,7.05
2023-05-10T08:16:28.549Z,7.55
2023-05-10T08:18:56.332Z,7.65
2023-05-10T08:21:23.020Z,7.18
2023-05-10T08:23:50.125Z,8.03
2023-05-10T08:26:16.625Z,7.22
2023-05-10T08:28:43.166Z,7.53
2023-05-10T08:31:09.679Z,8.20
2023-05-10T08:33:36.040Z,8.60
2023-05-10T08:36:02.450Z,8.50
2023-05-10T08:38:28.969Z,7.60
2023-05-10T08:41:00.077Z,8.25
2023-05-10T08:43:30.941Z,7.28
2023-05-10T08:46:00.973Z,9.00
2023-05-10T08:48:30.518Z,8.77
2023-05-10T08:51:00.952Z,8.18
2023-05-10T08:53:28.264Z,8.93
2023-05-10T08:55:55.450Z,8.80
2023-05-10T08:58:22.187Z,7.15
2023-05-10T09:00:51.912Z,8.57
2023-05-10T09:03:18.943Z,8.38
2023-05-10T09:05:46.111Z,7.18
2023-05-10T09:08:13.911Z,7.07
2023-05-10T09:10:43.213Z,7.25
2023-05-10T09:13:11.891Z,6.30
2023-05-10T09:15:40.514Z,6.63
2023-05-10T09:18:07.231Z,6.43
2023-05-10T09:20:33.927Z,5.68
2023-05-10T09:23:00.484Z,5.50
2023-05-10T09:25:26.915Z,3.47
2023-05-10T09:27:53.727Z,3.88
2023-05-10T09:30:28.272Z,3.50
2023-05-10T09:32:56.206Z,3.83
2023-05-10T09:35:28.009Z,2.90
2023-05-10T09:37:59.031Z,3.03
2023-05-10T09:40:27.140Z,3.10
2023-05-10T09:42:55.536Z,3.28
2023-05-10T09:45:26.231Z,2.67
2023-05-10T09:47:53.026Z,2.80
2023-05-10T09:50:20.537Z,2.57
2023-05-10T09:53:01.237Z,2.75
2023-05-10T09:55:36.742Z,3.20
2023-05-10T09:58:03.393Z,3.42
2023-05-10T10:00:36.371Z,3.80
2023-05-10T10:03:04.414Z,3.40
2023-05-10T10:05:31.825Z,4.20
2023-05-10T10:07:59.468Z,3.90
2023-05-10T10:10:29.582Z,4.82
2023-05-10T10:12:56.526Z,4.38
2023-05-10T10:15:24.057Z,4.03
2023-05-10T10:17:52.382Z,3.70
2023-05-10T10:20:21.141Z,3.70
2023-05-10T10:22:48.339Z,3.83
2023-05-10T10:25:17.220Z,4.00
2023-05-10T10:27:52.974Z,3.97
2023-05-10T10:30:28.636Z,3.95
2023-05-10T10:33:13.327Z,4.00
2023-05-10T10:35:47.941Z,3.97
2023-05-10T10:38:14.824Z,3.83
2023-05-10T10:40:41.836Z,4.40
2023-05-10T10:43:28.470Z,4.40
2023-05-10T10:46:18.432Z,4.80
2023-05-10T10:48:50.905Z,4.03
2023-05-10T10:51:17.581Z,4.00
2023-05-10T10:53:44.599Z,4.00
2023-05-10T10:56:14.608Z,4.40
2023-05-10T10:58:41.772Z,4.10
2023-05-10T11:01:13.496Z,4.13
2023-05-10T11:03:40.748Z,4.50
2023-05-10T11:06:08.919Z,3.77
2023-05-10T11:08:44.428Z,3.80
2023-05-10T11:11:15.130Z,3.53
2023-05-10T11:13:43.056Z,3.83
2023-05-10T11:16:28.027Z,4.15
2023-05-10T11:18:57.505Z,3.90
2023-05-10T11:21:24.157Z,3.80
2023-05-10T11:23:56.897Z,4.00
2023-05-10T11:26:31.559Z,3.80
2023-05-10T11:28:59.446Z,5.15
2023-05-10T11:31:27.901Z,4.20
2023-05-10T11:33:59.355Z,4.15
2023-05-10T11:36:28.833Z,3.80
2023-05-10T11:38:56.840Z,3.88
2023-05-10T11:41:25.466Z,3.90
2023-05-10T11:43:54.116Z,3.87
2023-05-10T11:46:23.073Z,3.70
2023-05-10T11:49:01.339Z,3.80
2023-05-10T11:51:28.207Z,2.70
2023-05-10T11:53:56.944Z,3.38
2023-05-10T11:56:24.533Z,2.80
2023-05-10T11:58:58.654Z,3.50
2023-05-10T12:01:27.583Z,2.88
2023-05-10T12:04:00.758Z,2.70
2023-05-10T12:06:29.793Z,2.80
2023-05-10T12:08:56.298Z,3.43
2023-05-10T12:11:26.647Z,2.95
2023-05-10T12:13:54.086Z,2.60
2023-05-10T12:16:23.139Z,2.47
2023-05-10T12:18:51.939Z,2.00
2023-05-10T12:21:20.509Z,2.30
2023-05-10T12:23:55.052Z,2.30
2023-05-10T12:26:27.333Z,2.70
2023-05-10T12:29:19.265Z,2.75
2023-05-10T12:31:54.833Z,2.63
2023-05-10T12:34:28.337Z,2.43
2023-05-10T12:36:55.757Z,2.40
2023-05-10T12:39:22.452Z,1.88
2023-05-10T12:41:49.092Z,2.13
2023-05-10T12:44:15.747Z,1.70
2023-05-10T12:46:42.197Z,1.73
2023-05-10T12:49:09.734Z,1.85
2023-05-10T12:51:36.424Z,1.80
2023-05-10T12:54:04.598Z,2.25
2023-05-10T12:56:31.114Z,2.15
2023-05-10T12:58:58.947Z,1.57
2023-05-10T13:01:25.504Z,1.73
2023-05-10T13:03:52.092Z,1.90
2023-05-10T13:06:18.763Z,2.20
2023-05-10T13:08:45.402Z,2.17
2023-05-10T13:11:12.097Z,1.97
2023-05-10T13:13:38.513Z,1.60
2023-05-10T13:16:05.452Z,1.70
2023-05-10T13:18:32.024Z,1.65
2023-05-10T13:20:58.469Z,2.00
2023-05-10T13:23:25.024Z,3.40
2023-05-10T13:25:51.560Z,3.70
2023-05-10T13:28:17.904Z,3.95
2023-05-10T13:30:44.594Z,4.10
2023-05-10T13:33:11.064Z,3.92
2023-05-10T13:35:37.448Z,3.97
2023-05-10T13:38:04.098Z,3.90
2023-05-10T13:40:30.617Z,4.03
2023-05-10T13:42:57.080Z,4.50
2023-05-10T13:45:23.591Z,4.43
2023-05-10T13:47:50.304Z,4.33
2023-05-10T13:50:16.934Z,4.38
2023-05-10T13:52:43.449Z,4.15
2023-05-10T13:55:09.844Z,4.22
2023-05-10T13:57:36.912Z,4.10
2023-05-10T14:00:03.663Z,4.50
2023-05-10T14:02:30.688Z,4.88
2023-05-10T14:04:57.113Z,4.28
2023-05-10T14:07:23.544Z,4.97
2023-05-10T14:09:50.188Z,4.03
2023-05-10T14:12:17.312Z,4.00
2023-05-10T14:14:43.798Z,4.30
2023-05-10T14:17:12.133Z,4.45
2023-05-10T14:19:39.753Z,4.05
2023-05-10T14:22:06.485Z,4.18
2023-05-10T14:24:33.352Z,4.67
2023-05-10T14:26:59.941Z,4.07
2023-05-10T14:29:26.663Z,5.75
2023-05-10T14:31:53.282Z,4.70
2023-05-10T14:34:19.682Z,4.72
2023-05-10T14:36:46.261Z,4.80
2023-05-10T14:39:14.333Z,5.28
2023-05-10T14:41:45.466Z,4.50
2023-05-10T14:44:12.026Z,5.30
2023-05-10T14:46:39.174Z,5.18
2023-05-10T14:49:05.946Z,4.17
2023-05-10T14:51:32.793Z,4.95
2023-05-10T14:53:59.415Z,5.10
2023-05-10T14:56:26.821Z,5.10
2023-05-10T14:58:53.266Z,5.60
2023-05-10T15:01:20.144Z,5.30
2023-05-10T15:03:46.927Z,5.05
2023-05-10T15:06:15.793Z,5.65
2023-05-10T15:08:42.599Z,5.45
2023-05-10T15:11:09.050Z,5.50
2023-05-10T15:13:35.811Z,5.47
2023-05-10T15:16:02.322Z,4.90
2023-05-10T15:18:29.016Z,4.93
2023-05-10T15:20:56.205Z,5.20
2023-05-10T15:23:22.618Z,5.72
2023-05-10T15:25:50.708Z,4.90
2023-05-10T15:28:17.190Z,5.40
2023-05-10T15:30:43.594Z,5.43
2023-05-10T15:33:09.999Z,5.63
2023-05-10T15:35:39.211Z,5.60
2023-05-10T15:38:05.655Z,5.37
2023-05-10T15:40:32.463Z,5.05
2023-05-10T15:42:58.910Z,5.40
2023-05-10T15:45:25.572Z,5.00
2023-05-10T15:47:52.329Z,5.20
2023-05-10T15:50:18.933Z,4.07
2023-05-10T15:52:45.474Z,4.28
2023-05-10T15:55:14.927Z,4.22
2023-05-10T15:57:42.827Z,3.45
2023-05-10T16:00:10.632Z,4.03
2023-05-10T16:02:37.422Z,3.87
2023-05-10T16:05:04.651Z,3.95
2023-05-10T16:07:31.107Z,3.83
2023-05-10T16:09:57.482Z,4.03
2023-05-10T16:12:24.081Z,4.75
2023-05-10T16:14:50.669Z,4.63
2023-05-10T16:17:17.389Z,4.00
2023-05-10T16:19:43.894Z,4.10
2023-05-10T16:22:10.316Z,3.90
2023-05-10T16:24:36.956Z,4.25
2023-05-10T16:27:03.527Z,4.10
2023-05-10T16:29:29.956Z,4.65
2023-05-10T16:31:56.527Z,4.72
2023-05-10T16:34:24.308Z,4.78
2023-05-10T16:36:51.596Z,4.20
2023-05-10T16:39:18.013Z,4.73
2023-05-10T16:41:45.116Z,4.32
2023-05-10T16:44:11.675Z,4.80
2023-05-10T16:46:38.126Z,3.78
2023-05-10T16:49:06.844Z,4.15
2023-05-10T16:51:33.244Z,3.80
2023-05-10T16:53:59.863Z,3.47
2023-05-10T16:56:26.769Z,3.78
2023-05-10T16:58:54.078Z,3.08
2023-05-10T17:01:21.212Z,2.95
2023-05-10T17:03:48.238Z,3.40
2023-05-10T17:06:14.830Z,2.58
2023-05-10T17:08:41.423Z,3.38
2023-05-10T17:11:07.774Z,2.60
2023-05-10T17:13:34.255Z,2.90
2023-05-10T17:16:03.514Z,2.97
2023-05-10T17:18:30.679Z,2.83
2023-05-10T17:20:57.109Z,2.45
2023-05-10T17:23:23.496Z,2.55
2023-05-10T17:25:49.863Z,2.17
2023-05-10T17:28:16.223Z,2.47
2023-05-10T17:30:42.614Z,2.22
2023-05-10T17:33:09.231Z,2.30
2023-05-10T17:35:35.737Z,2.55
2023-05-10T17:38:02.576Z,2.50
2023-05-10T17:40:29.374Z,2.57
2023-05-10T17:42:55.956Z,2.70
2023-05-10T17:45:22.796Z,3.38
2023-05-10T17:47:49.254Z,3.30
2023-05-10T17:50:15.850Z,3.60
2023-05-10T17:52:42.370Z,4.07
2023-05-10T17:55:09.011Z,3.40
2023-05-10T17:57:38.037Z,3.75
2023-05-10T18:00:06.441Z,3.30
2023-05-10T18:02:32.876Z,4.38
2023-05-10T18:05:01.334Z,3.77
2023-05-10T18:07:29.883Z,4.18
2023-05-10T18:09:57.859Z,4.55
2023-05-10T18:12:24.894Z,4.32
2023-05-10T18:14:51.696Z,3.67
2023-05-10T18:17:18.343Z,4.10
2023-05-10T18:19:44.741Z,4.28
2023-05-10T18:22:11.343Z,4.50
2023-05-10T18:24:39.502Z,4.57
2023-05-10T18:27:08.332Z,4.25
2023-05-10T18:29:35.131Z,4.83
2023-05-10T18:32:01.543Z,4.68
2023-05-10T18:34:28.742Z,4.28
2023-05-10T18:36:55.818Z,5.10
2023-05-10T18:39:22.217Z,4.75
2023-05-10T18:41:50.146Z,4.77
2023-05-10T18:44:16.700Z,5.03
2023-05-10T18:46:43.492Z,5.32
2023-05-10T18:49:10.252Z,5.22
2023-05-10T18:51:36.698Z,5.22
2023-05-10T18:54:03.454Z,5.03
2023-05-10T18:56:29.834Z,5.90
2023-05-10T18:58:56.493Z,5.18
2023-05-10T19:01:22.922Z,4.93
2023-05-10T19:03:49.343Z,5.25
2023-05-10T19:06:15.798Z,5.80
2023-05-10T19:08:42.269Z,5.18
2023-05-10T19:11:08.726Z,4.88
2023-05-10T19:13:35.354Z,5.05
2023-05-10T19:16:06.904Z,5.43
2023-05-10T19:18:34.120Z,5.10
2023-05-10T19:21:04.451Z,6.32
2023-05-10T19:23:34.577Z,5.57
2023-05-10T19:26:01.216Z,5.53
2023-05-10T19:28:28.725Z,5.65
2023-05-10T19:30:55.334Z,6.30
2023-05-10T19:33:21.790Z,4.93
2023-05-10T19:35:52.022Z,5.57
2023-05-10T19:38:25.563Z,5.63
2023-05-10T19:40:57.626Z,5.63
2023-05-10T19:43:28.310Z,5.63
2023-05-10T19:45:58.145Z,5.32
2023-05-10T19:48:25.068Z,5.80
2023-05-10T19:50:52.632Z,5.95
2023-05-10T19:53:19.394Z,6.35
2023-05-10T19:55:46.217Z,5.97
2023-05-10T19:58:12.561Z,6.10
2023-05-10T20:00:39.031Z,5.28
2023-05-10T20:03:07.038Z,6.13
2023-05-10T20:05:35.549Z,6.10
2023-05-10T20:08:01.991Z,5.77
2023-05-10T20:10:28.675Z,5.70
2023-05-10T20:12:55.284Z,5.95
2023-05-10T20:15:23.104Z,6.28
2023-05-10T20:17:51.939Z,5.78
2023-05-10T20:20:20.339Z,5.93
2023-05-10T20:22:47.949Z,6.28
2023-05-10T20:25:14.632Z,6.03
2023-05-10T20:27:41.108Z,5.85
2023-05-10T20:30:08.300Z,5.95
2023-05-10T20:32:35.381Z,5.80
2023-05-10T20:35:02.096Z,6.80
2023-05-10T20:37:28.682Z,5.82
2023-05-10T20:39:55.481Z,6.55
2023-05-10T20:42:22.377Z,6.57
2023-05-10T20:44:49.800Z,7.13
2023-05-10T20:47:16.855Z,6.53
2023-05-10T20:49:43.688Z,6.47
2023-05-10T20:52:10.301Z,6.60
2023-05-10T20:54:36.843Z,7.05
2023-05-10T20:57:03.378Z,6.77
2023-05-10T20:59:29.853Z,7.05
2023-05-10T21:01:57.519Z,6.63
2023-05-10T21:04:25.436Z,7.05
2023-05-10T21:06:52.329Z,6.15
2023-05-10T21:09:18.968Z,6.10
2023-05-10T21:11:45.492Z,6.40
2023-05-10T21:14:11.893Z,6.47
2023-05-10T21:16:38.684Z,6.25
2023-05-10T21:19:07.140Z,6.10
2023-05-10T21:21:34.009Z,5.67
2023-05-10T21:24:00.563Z,7.25
2023-05-10T21:26:27.180Z,7.07
2023-05-10T21:28:53.723Z,7.50
2023-05-10T21:31:20.327Z,6.85
2023-05-10T21:33:47.053Z,6.97
2023-05-10T21:36:13.848Z,6.47
2023-05-10T21:38:41.053Z,6.75
2023-05-10T21:41:08.175Z,6.45
2023-05-10T21:43:34.756Z,6.90
2023-05-10T21:46:01.615Z,6.13
2023-05-10T21:48:28.309Z,7.07
2023-05-10T21:50:54.851Z,5.95
2023-05-10T21:53:22.295Z,6.20
2023-05-10T21:55:49.688Z,6.65
2023-05-10T21:58:16.507Z,6.40
2023-05-10T22:00:43.241Z,6.05
2023-05-10T22:03:09.767Z,6.30
2023-05-10T22:05:36.313Z,6.47
2023-05-10T22:08:02.881Z,6.60
2023-05-10T22:10:29.503Z,6.63
2023-05-10T22:12:56.011Z,6.70
2023-05-10T22:15:22.691Z,5.93
2023-05-10T22:17:49.101Z,6.82
2023-05-10T22:20:15.894Z,6.75
2023-05-10T22:22:42.516Z,6.53
2023-05-10T22:25:09.447Z,6.43
2023-05-10T22:27:36.198Z,6.40
2023-05-10T22:30:04.559Z,6.88
2023-05-10T22:32:31.900Z,6.15
2023-05-10T22:34:58.576Z,6.70
2023-05-10T22:37:25.070Z,5.95
2023-05-10T22:39:51.588Z,5.70
2023-05-10T22:42:18.341Z,6.75
2023-05-10T22:44:44.799Z,6.97
2023-05-10T22:47:11.502Z,6.37
2023-05-10T22:49:38.355Z,6.90
2023-05-10T22:52:04.758Z,5.93
2023-05-10T22:54:31.225Z,6.30
2023-05-10T22:56:57.914Z,7.50
2023-05-10T22:59:24.324Z,6.50
2023-05-10T23:01:51.041Z,6.88
2023-05-10T23:04:18.013Z,5.78
2023-05-10T23:06:45.563Z,7.28
2023-05-10T23:09:12.178Z,6.68
2023-05-10T23:11:38.566Z,7.30
2023-05-10T23:14:04.967Z,6.90
2023-05-10T23:16:31.709Z,7.90
2023-05-10T23:18:58.364Z,7.03
2023-05-10T23:21:25.371Z,7.13
2023-05-10T23:23:52.579Z,6.40
2023-05-10T23:26:19.199Z,8.23
2023-05-10T23:28:45.591Z,7.60
2023-05-10T23:31:12.013Z,7.00
2023-05-10T23:33:38.682Z,7.63
2023-05-10T23:36:05.638Z,7.57
2023-05-10T23:38:32.094Z,8.23
2023-05-10T23:40:59.557Z,8.43
2023-05-10T23:43:26.067Z,7.80
2023-05-10T23:45:54.328Z,8.07
2023-05-10T23:48:20.863Z,8.53
2023-05-10T23:50:47.410Z,8.98
2023-05-10T23:53:13.852Z,7.90
2023-05-10T23:55:40.215Z,7.68
2023-05-10T23:58:06.946Z,7.90
